Time;durP1;ratioP1;P1;durP2;ratioP2;P2;SDS_P1;SDS_P2;PMS_P1;PMS_P2;Temp;Humidity;BMP_temperature;BMP_pressure;BME280_temperature;BME280_humidity;BME280_pressure;Samples;Min_cycle;Max_cycle;Signal;HPM_P1;HPM_P2
2022/07/08 00:04:58;;;;;;;6.00;2.80;;;15.50;99.90;;;;;;5041109;28;20481;-73
2022/07/08 00:08:09;;;;;;;10.20;3.27;;;15.50;99.90;;;;;;5041178;28;20486;-71
2022/07/08 00:11:16;;;;;;;9.90;3.30;;;15.50;99.90;;;;;;5041459;28;20500;-71
2022/07/08 00:14:41;;;;;;;13.83;3.53;;;15.50;99.90;;;;;;5039410;28;20545;-71
2022/07/08 00:18:05;;;;;;;7.83;2.93;;;15.50;99.90;;;;;;5044437;28;21295;-72
2022/07/08 00:24:41;;;;;;;9.17;2.57;;;15.40;99.90;;;;;;5038511;28;20477;-71
2022/07/08 00:27:48;;;;;;;7.70;2.57;;;15.40;99.90;;;;;;5048765;28;20454;-71
2022/07/08 00:31:01;;;;;;;6.60;2.83;;;15.40;99.90;;;;;;5043864;28;20504;-72
2022/07/08 00:34:36;;;;;;;5.23;2.20;;;15.30;99.90;;;;;;5040637;28;21429;-72
2022/07/08 00:37:42;;;;;;;10.63;3.07;;;15.30;99.90;;;;;;5046056;28;20941;-72
2022/07/08 00:40:39;;;;;;;6.40;2.53;;;15.30;99.90;;;;;;5044508;28;21080;-72
2022/07/08 00:43:40;;;;;;;7.40;2.97;;;15.30;99.90;;;;;;5043536;28;20526;-71
2022/07/08 00:46:49;;;;;;;6.87;2.60;;;15.20;99.90;;;;;;5042506;28;21026;-71
2022/07/08 00:50:01;;;;;;;7.80;2.40;;;15.20;99.90;;;;;;5041887;28;20478;-72
2022/07/08 00:53:10;;;;;;;9.20;2.70;;;15.20;99.90;;;;;;5040138;28;20468;-71
2022/07/08 00:56:36;;;;;;;10.30;3.23;;;15.20;99.90;;;;;;5040868;28;20515;-71
2022/07/08 00:59:48;;;;;;;;;;;;;;;;;;;;;
2022/07/08 01:03:18;;;;;;;;;;;;;;;;;;;;;
2022/07/08 01:06:52;;;;;;;7.90;2.60;;;15.20;99.90;;;;;;5039621;28;20573;-72
2022/07/08 01:09:54;;;;;;;8.80;3.23;;;15.20;99.90;;;;;;5042201;28;21028;-72
2022/07/08 01:13:05;;;;;;;6.83;2.67;;;15.20;99.90;;;;;;5044758;28;20907;-72
2022/07/08 01:16:08;;;;;;;;;;;;;;;;;;;;;
2022/07/08 01:19:04;;;;;;;8.83;3.00;;;15.20;99.90;;;;;;5039877;28;20478;-72
2022/07/08 01:25:48;;;;;;;6.77;2.40;;;15.20;99.90;;;;;;5037159;28;21029;-71
2022/07/08 01:29:01;;;;;;;5.00;2.07;;;15.20;99.90;;;;;;5040692;28;20474;-72
2022/07/08 01:32:18;;;;;;;8.10;2.33;;;15.20;99.90;;;;;;5040882;28;20508;-73
2022/07/08 01:35:51;;;;;;;7.23;2.40;;;15.20;99.90;;;;;;5039209;28;20620;-72
2022/07/08 01:38:53;;;;;;;7.43;2.40;;;15.10;99.90;;;;;;5043067;28;20508;-72
2022/07/08 01:41:58;;;;;;;6.90;2.30;;;15.10;99.90;;;;;;5042830;28;21478;-71
2022/07/08 01:45:07;;;;;;;9.20;2.27;;;15.10;99.90;;;;;;5030819;28;20486;-71
2022/07/08 01:51:38;;;;;;;6.10;2.03;;;15.10;99.90;;;;;;5045927;28;20523;-71
2022/07/08 01:54:44;;;;;;;7.37;2.33;;;15.10;99.90;;;;;;5046029;28;20624;-71
2022/07/08 01:57:48;;;;;;;9.10;2.33;;;15.10;99.90;;;;;;5044974;28;20536;-72
2022/07/08 02:00:59;;;;;;;10.53;2.97;;;15.10;99.90;;;;;;5044906;28;20568;-72
2022/07/08 02:04:06;;;;;;;9.07;2.97;;;15.10;99.90;;;;;;5045550;28;20553;-72
2022/07/08 02:06:57;;;;;;;9.17;2.40;;;15.10;99.90;;;;;;5043518;28;20462;-73
2022/07/08 02:10:14;;;;;;;6.63;2.40;;;15.10;99.90;;;;;;5041823;28;20483;-71
2022/07/08 02:13:23;;;;;;;8.67;2.70;;;15.00;99.90;;;;;;5045531;28;20486;-71
2022/07/08 02:20:24;;;;;;;8.43;2.33;;;15.00;99.90;;;;;;5043594;28;20557;-73
2022/07/08 02:23:26;;;;;;;6.40;2.63;;;15.10;99.90;;;;;;5044453;28;20892;-72
2022/07/08 02:26:19;;;;;;;4.63;2.07;;;15.10;99.90;;;;;;5044183;28;20466;-71
2022/07/08 02:29:19;;;;;;;7.90;2.93;;;15.10;99.90;;;;;;5041295;28;20470;-71
2022/07/08 02:32:25;;;;;;;5.73;2.80;;;15.00;99.90;;;;;;5044566;28;20531;-72
2022/07/08 02:35:37;;;;;;;;;;;;;;;;;;;;;
2022/07/08 02:38:33;;;;;;;5.53;2.60;;;15.00;99.90;;;;;;5043367;28;20465;-72
2022/07/08 02:41:45;;;;;;;5.97;2.17;;;15.00;99.90;;;;;;5044054;28;20599;-71
2022/07/08 02:45:25;;;;;;;9.37;2.90;;;15.00;99.90;;;;;;5040482;28;20451;-73
2022/07/08 02:48:26;;;;;;;4.60;2.70;;;14.90;99.90;;;;;;5039237;28;20478;-71
2022/07/08 02:51:34;;;;;;;8.10;2.50;;;15.00;99.90;;;;;;5044655;28;20455;-71
2022/07/08 02:54:44;;;;;;;4.17;2.10;;;14.90;99.90;;;;;;5049810;28;20474;-72
2022/07/08 02:58:15;;;;;;;6.80;2.67;;;15.00;99.90;;;;;;5046276;28;20463;-72
2022/07/08 03:01:25;;;;;;;3.50;1.90;;;15.00;99.90;;;;;;5046171;28;20632;-72
2022/07/08 03:04:37;;;;;;;;;;;;;;;;;;;;;
2022/07/08 03:11:11;;;;;;;6.37;1.90;;;15.00;99.90;;;;;;5048408;28;20471;-72
2022/07/08 03:14:35;;;;;;;6.93;2.50;;;14.90;99.90;;;;;;5041617;28;20524;-72
2022/07/08 03:17:52;;;;;;;;;;;;;;;;;;;;;
2022/07/08 03:20:46;;;;;;;8.47;2.27;;;14.90;99.90;;;;;;5040134;28;20584;-72
2022/07/08 03:23:57;;;;;;;5.00;2.30;;;15.00;99.90;;;;;;5046769;28;20458;-72
2022/07/08 03:30:04;;;;;;;5.57;2.10;;;14.90;99.90;;;;;;5034520;28;20473;-71
2022/07/08 03:33:14;;;;;;;5.80;2.53;;;14.90;99.90;;;;;;5046021;28;20459;-72
2022/07/08 03:36:27;;;;;;;5.30;2.03;;;14.90;99.90;;;;;;5046376;28;20477;-72
2022/07/08 03:39:39;;;;;;;6.77;2.30;;;14.90;99.90;;;;;;5042694;28;25913;-71
2022/07/08 03:42:46;;;;;;;6.40;2.10;;;14.80;99.90;;;;;;5045071;28;20470;-72
2022/07/08 03:46:05;;;;;;;4.30;2.20;;;14.90;99.90;;;;;;5047658;28;20474;-72
2022/07/08 03:49:26;;;;;;;3.87;2.27;;;14.90;99.90;;;;;;5043664;28;21046;-72
2022/07/08 03:52:50;;;;;;;;;;;;;;;;;;;;;
2022/07/08 03:55:58;;;;;;;8.90;2.40;;;14.80;99.90;;;;;;5043958;28;20482;-73
2022/07/08 03:59:40;;;;;;;7.70;2.10;;;14.80;99.90;;;;;;5042632;28;20466;-73
2022/07/08 04:02:57;;;;;;;6.97;2.33;;;14.80;99.90;;;;;;5038270;28;20455;-72
2022/07/08 04:06:05;;;;;;;6.50;2.60;;;14.80;99.90;;;;;;5044650;28;20486;-72
2022/07/08 04:09:08;;;;;;;6.00;2.30;;;14.80;99.90;;;;;;5045649;28;20486;-72
2022/07/08 04:12:29;;;;;;;4.73;2.00;;;14.80;99.90;;;;;;5046921;28;20451;-72
2022/07/08 04:15:55;;;;;;;6.40;2.53;;;14.80;99.90;;;;;;5046638;28;20586;-72
2022/07/08 04:19:03;;;;;;;10.13;2.60;;;14.90;99.90;;;;;;5043060;28;20482;-71
2022/07/08 04:22:02;;;;;;;5.80;2.67;;;14.90;99.90;;;;;;5046669;28;20455;-72
2022/07/08 04:25:03;;;;;;;5.33;2.20;;;14.90;99.90;;;;;;5047662;28;20482;-71
2022/07/08 04:28:21;;;;;;;8.47;2.00;;;14.90;99.90;;;;;;5044590;28;20539;-72
2022/07/08 04:31:56;;;;;;;12.57;2.60;;;14.90;99.90;;;;;;5032894;28;20573;-73
2022/07/08 04:34:58;;;;;;;10.40;2.97;;;15.00;99.90;;;;;;5042038;28;20467;-72
2022/07/08 04:37:54;;;;;;;7.97;2.43;;;15.00;99.90;;;;;;5049883;28;20438;-71
2022/07/08 04:41:06;;;;;;;7.63;2.40;;;15.00;99.90;;;;;;5041337;28;20478;-72
2022/07/08 04:44:11;;;;;;;6.70;2.30;;;15.00;99.90;;;;;;5045737;28;20477;-71
2022/07/08 04:47:06;;;;;;;9.53;2.13;;;15.00;99.90;;;;;;5045830;28;20494;-71
2022/07/08 04:50:16;;;;;;;10.40;2.60;;;15.10;99.90;;;;;;5042843;28;20479;-71
2022/07/08 04:53:43;;;;;;;4.80;2.00;;;15.10;99.90;;;;;;5040143;28;20458;-73
2022/07/08 04:56:46;;;;;;;5.57;2.70;;;15.10;99.90;;;;;;5045405;28;20596;-70
2022/07/08 04:59:55;;;;;;;4.50;2.23;;;15.10;99.90;;;;;;5044902;28;20855;-71
2022/07/08 05:02:49;;;;;;;4.87;2.33;;;15.10;99.90;;;;;;5042950;28;20454;-71
2022/07/08 05:06:13;;;;;;;8.13;2.60;;;15.20;99.90;;;;;;5040697;28;20501;-72
2022/07/08 05:09:23;;;;;;;8.67;2.13;;;15.30;99.90;;;;;;5042980;28;20975;-73
2022/07/08 05:12:38;;;;;;;5.40;2.53;;;15.30;99.90;;;;;;5041360;28;20543;-73
2022/07/08 05:15:47;;;;;;;8.13;2.27;;;15.40;99.90;;;;;;5042842;28;20712;-72
2022/07/08 05:19:20;;;;;;;10.40;2.60;;;15.30;99.90;;;;;;5035228;28;20486;-72
2022/07/08 05:25:43;;;;;;;7.53;2.00;;;15.30;99.90;;;;;;5032985;28;20551;-72
2022/07/08 05:29:00;;;;;;;4.07;2.47;;;15.40;99.90;;;;;;5041760;28;20573;-72
2022/07/08 05:32:11;;;;;;;6.10;2.40;;;15.40;99.90;;;;;;5046258;28;20536;-71
2022/07/08 05:35:11;;;;;;;6.07;2.03;;;15.40;99.90;;;;;;5046726;28;21014;-71
2022/07/08 05:38:24;;;;;;;7.43;2.70;;;15.40;99.90;;;;;;5042490;28;20465;-72
2022/07/08 05:41:38;;;;;;;9.43;2.87;;;15.40;99.90;;;;;;5039014;28;20836;-71
2022/07/08 05:45:04;;;;;;;;;;;;;;;;;;;;;
2022/07/08 05:47:59;;;;;;;4.70;2.50;;;15.50;99.90;;;;;;5042766;28;20836;-71
2022/07/08 05:54:15;;;;;;;6.30;2.20;;;15.60;99.90;;;;;;5035342;28;20538;-72
2022/07/08 06:00:37;;;;;;;6.77;2.50;;;15.70;99.90;;;;;;5042931;28;20536;-72
2022/07/08 06:03:32;;;;;;;5.33;2.53;;;15.80;99.90;;;;;;5031511;28;20455;-74
2022/07/08 06:06:28;;;;;;;7.30;2.33;;;15.80;99.90;;;;;;5019808;28;20567;-74
2022/07/08 06:09:27;;;;;;;5.93;2.40;;;15.90;99.90;;;;;;5038133;28;20855;-72
2022/07/08 06:12:23;;;;;;;6.93;2.20;;;15.90;99.90;;;;;;5043314;28;20462;-74
2022/07/08 06:15:21;;;;;;;8.30;2.87;;;16.00;99.90;;;;;;5040199;28;21045;-72
2022/07/08 06:18:23;;;;;;;7.77;2.63;;;16.00;99.90;;;;;;5044507;28;20508;-73
2022/07/08 06:21:16;;;;;;;5.93;2.63;;;16.10;99.90;;;;;;5042795;28;20448;-74
2022/07/08 06:24:13;;;;;;;6.90;2.50;;;16.10;99.90;;;;;;5039837;28;20544;-73
2022/07/08 06:27:24;;;;;;;6.73;2.50;;;16.10;99.90;;;;;;5045982;28;20450;-73
2022/07/08 06:30:29;;;;;;;10.70;2.80;;;16.10;99.90;;;;;;5042326;28;20930;-73
2022/07/08 06:33:20;;;;;;;9.43;2.60;;;16.10;99.90;;;;;;5047357;28;20492;-73
2022/07/08 06:36:13;;;;;;;10.47;2.60;;;16.20;99.90;;;;;;5043962;28;20518;-71
2022/07/08 06:39:02;;;;;;;4.83;2.57;;;16.20;99.90;;;;;;5043360;28;20470;-73
2022/07/08 06:41:57;;;;;;;6.10;2.23;;;16.20;99.90;;;;;;5045627;28;20653;-73
2022/07/08 06:44:52;;;;;;;3.20;2.10;;;16.30;99.90;;;;;;5043350;28;20469;-72
2022/07/08 06:47:41;;;;;;;5.80;2.43;;;16.30;99.90;;;;;;5046112;28;21223;-72
2022/07/08 06:50:34;;;;;;;6.50;2.63;;;16.30;99.90;;;;;;5044974;28;20556;-73
2022/07/08 06:53:25;;;;;;;5.23;2.20;;;16.40;99.90;;;;;;5039716;28;20835;-72
2022/07/08 06:56:24;;;;;;;3.40;2.33;;;16.30;99.90;;;;;;5046907;28;20486;-72
2022/07/08 06:59:18;;;;;;;4.10;2.60;;;16.30;99.90;;;;;;5043263;28;21029;-72
2022/07/08 07:02:14;;;;;;;7.63;2.30;;;16.30;99.90;;;;;;5044297;28;20522;-73
2022/07/08 07:05:07;;;;;;;3.10;1.90;;;16.40;99.90;;;;;;5045031;28;20569;-72
2022/07/08 07:07:57;;;;;;;6.77;2.20;;;16.50;99.90;;;;;;5046169;28;20459;-73
2022/07/08 07:10:47;;;;;;;5.23;2.10;;;16.50;99.90;;;;;;5040824;28;20528;-73
2022/07/08 07:13:38;;;;;;;3.20;1.80;;;16.60;99.90;;;;;;5042227;28;21272;-72
2022/07/08 07:16:27;;;;;;;9.03;2.27;;;16.60;99.90;;;;;;5036671;28;20481;-72
2022/07/08 07:19:15;;;;;;;5.03;1.80;;;16.60;99.90;;;;;;5039295;28;20555;-73
2022/07/08 07:22:05;;;;;;;2.83;1.80;;;16.60;99.90;;;;;;5043893;28;21220;-73
2022/07/08 07:24:53;;;;;;;3.30;2.13;;;16.60;99.90;;;;;;5034152;28;20486;-77
2022/07/08 07:27:45;;;;;;;3.70;1.93;;;16.60;99.90;;;;;;5040910;28;20599;-76
2022/07/08 07:30:40;;;;;;;3.33;2.50;;;16.60;99.90;;;;;;5039115;28;20469;-74
2022/07/08 07:33:43;;;;;;;3.67;2.43;;;16.60;99.90;;;;;;5039155;28;21140;-77
2022/07/08 07:36:34;;;;;;;5.13;2.30;;;16.60;99.90;;;;;;5041566;28;20697;-74
2022/07/08 07:39:26;;;;;;;4.67;2.50;;;16.60;99.90;;;;;;5036822;28;20905;-72
2022/07/08 07:42:16;;;;;;;6.97;2.87;;;16.50;99.90;;;;;;5041891;28;20451;-71
2022/07/08 07:45:10;;;;;;;5.50;2.23;;;16.60;99.90;;;;;;5037972;28;20485;-74
2022/07/08 07:47:59;;;;;;;7.97;2.87;;;16.60;99.90;;;;;;5042372;28;21061;-73
2022/07/08 07:50:49;;;;;;;4.20;2.50;;;16.50;99.90;;;;;;5044094;28;20482;-72
2022/07/08 07:53:39;;;;;;;6.87;2.83;;;16.60;99.90;;;;;;5045059;28;21511;-74
2022/07/08 07:56:32;;;;;;;5.70;2.60;;;16.60;99.90;;;;;;5039716;28;20628;-73
2022/07/08 07:59:27;;;;;;;5.13;2.60;;;16.60;99.90;;;;;;5038522;28;22271;-71
2022/07/08 08:02:19;;;;;;;7.50;2.80;;;16.60;99.90;;;;;;5044257;28;20466;-73
2022/07/08 08:05:12;;;;;;;8.57;3.00;;;16.60;99.90;;;;;;5043339;28;20474;-72
2022/07/08 08:08:07;;;;;;;5.13;2.73;;;16.50;99.90;;;;;;5043141;28;20450;-73
2022/07/08 08:10:55;;;;;;;6.73;2.93;;;16.50;99.90;;;;;;5038365;28;20577;-72
2022/07/08 08:13:47;;;;;;;5.00;2.57;;;16.50;99.90;;;;;;5043032;28;20529;-72
2022/07/08 08:16:40;;;;;;;6.60;3.20;;;16.50;99.90;;;;;;5044898;28;21305;-73
2022/07/08 08:19:34;;;;;;;6.03;3.23;;;16.50;99.90;;;;;;5045479;28;20478;-72
2022/07/08 08:22:26;;;;;;;4.33;3.23;;;16.50;99.90;;;;;;5048888;28;20454;-72
2022/07/08 08:25:14;;;;;;;7.07;3.03;;;16.50;99.90;;;;;;5043720;28;20964;-72
2022/07/08 08:28:05;;;;;;;5.77;3.20;;;16.40;99.90;;;;;;5042257;28;20489;-73
2022/07/08 08:30:55;;;;;;;6.40;3.00;;;16.40;99.90;;;;;;5046179;28;20982;-72
2022/07/08 08:33:44;;;;;;;5.87;3.23;;;16.40;99.90;;;;;;5044266;28;20484;-73
2022/07/08 08:36:34;;;;;;;6.77;3.47;;;16.40;99.90;;;;;;5043361;28;20485;-72
2022/07/08 08:39:26;;;;;;;4.80;3.10;;;16.30;99.90;;;;;;5043036;28;20474;-72
2022/07/08 08:42:19;;;;;;;3.63;3.00;;;16.40;99.90;;;;;;5041962;28;20539;-72
2022/07/08 08:45:10;;;;;;;3.90;3.50;;;16.40;99.90;;;;;;5047842;28;20483;-71
2022/07/08 08:48:07;;;;;;;5.03;3.23;;;16.40;99.90;;;;;;5041456;28;21012;-73
2022/07/08 08:51:02;;;;;;;5.20;3.50;;;16.40;99.90;;;;;;5047343;28;20564;-72
2022/07/08 08:53:53;;;;;;;5.90;2.77;;;16.40;99.90;;;;;;5046099;28;20842;-74
2022/07/08 08:56:42;;;;;;;5.47;3.10;;;16.40;99.90;;;;;;5043342;28;20478;-74
2022/07/08 08:59:35;;;;;;;4.67;3.40;;;16.30;99.90;;;;;;5041181;28;20502;-73
2022/07/08 09:02:24;;;;;;;6.33;3.10;;;16.30;99.90;;;;;;5039966;28;20548;-73
2022/07/08 09:05:16;;;;;;;3.63;3.10;;;16.40;99.90;;;;;;5037788;28;20883;-72
2022/07/08 09:08:12;;;;;;;5.60;3.77;;;16.40;99.90;;;;;;5042317;28;20542;-73
2022/07/08 09:11:00;;;;;;;4.47;3.37;;;16.40;99.90;;;;;;5038957;28;20470;-72
2022/07/08 09:14:16;;;;;;;6.27;4.10;;;16.50;99.90;;;;;;5041584;28;20506;-72
2022/07/08 09:17:11;;;;;;;4.33;3.40;;;16.40;99.90;;;;;;5038149;28;20557;-73
2022/07/08 09:20:01;;;;;;;5.87;3.77;;;16.50;99.90;;;;;;5042738;28;21076;-72
2022/07/08 09:22:51;;;;;;;8.53;4.20;;;16.50;99.90;;;;;;5044921;28;20473;-73
2022/07/08 09:25:46;;;;;;;7.13;3.70;;;16.50;99.90;;;;;;5041709;28;20498;-72
2022/07/08 09:28:41;;;;;;;3.87;3.53;;;16.60;99.90;;;;;;5040400;28;20502;-71
2022/07/08 09:31:35;;;;;;;5.97;3.63;;;16.50;99.90;;;;;;5044943;28;20494;-72
2022/07/08 09:34:23;;;;;;;3.40;3.10;;;16.50;99.90;;;;;;5041984;28;20530;-73
2022/07/08 09:37:13;;;;;;;8.60;3.33;;;16.60;99.90;;;;;;5041451;28;20499;-72
2022/07/08 09:40:05;;;;;;;5.60;3.13;;;16.60;99.90;;;;;;5040951;28;20573;-72
2022/07/08 09:43:14;;;;;;;3.63;2.40;;;16.50;99.90;;;;;;5044786;28;20459;-72
2022/07/08 09:46:05;;;;;;;3.67;2.67;;;16.60;99.90;;;;;;5041133;28;21123;-73
2022/07/08 09:48:58;;;;;;;4.10;2.50;;;16.70;99.90;;;;;;5032528;28;20616;-72
2022/07/08 09:51:49;;;;;;;2.63;2.23;;;16.70;99.90;;;;;;5043511;28;20450;-73
2022/07/08 09:54:38;;;;;;;3.00;2.50;;;16.60;99.90;;;;;;5040257;28;20478;-73
2022/07/08 09:57:33;;;;;;;2.70;2.37;;;16.70;99.90;;;;;;5041091;28;20520;-73
2022/07/08 10:00:28;;;;;;;2.67;2.10;;;16.70;99.90;;;;;;5039207;28;20532;-72
2022/07/08 10:03:19;;;;;;;2.17;2.07;;;16.70;99.90;;;;;;5038614;28;20455;-71
2022/07/08 10:06:24;;;;;;;4.30;2.13;;;16.80;99.90;;;;;;5036802;28;20489;-71
2022/07/08 10:09:15;;;;;;;2.07;1.97;;;16.80;99.90;;;;;;5032950;28;20524;-72
2022/07/08 10:12:14;;;;;;;2.37;2.00;;;16.80;99.90;;;;;;5035995;28;20542;-71
2022/07/08 10:15:12;;;;;;;3.50;2.27;;;16.90;99.90;;;;;;5035412;28;20474;-72
2022/07/08 10:18:24;;;;;;;2.83;2.07;;;16.90;99.90;;;;;;5035659;28;20482;-73
2022/07/08 10:21:21;;;;;;;2.20;2.00;;;17.00;99.90;;;;;;5039208;28;20459;-76
2022/07/08 10:24:14;;;;;;;2.20;1.90;;;16.90;99.90;;;;;;5039570;28;20595;-73
2022/07/08 10:27:03;;;;;;;1.63;1.53;;;16.90;99.90;;;;;;5036599;28;20542;-72
2022/07/08 10:29:51;;;;;;;4.40;1.87;;;16.90;99.90;;;;;;5037378;28;20474;-73
2022/07/08 10:32:51;;;;;;;2.17;1.90;;;16.90;99.90;;;;;;5039953;28;20441;-72
2022/07/08 10:36:01;;;;;;;2.23;2.03;;;16.90;99.90;;;;;;5036169;28;20483;-73
2022/07/08 10:38:53;;;;;;;2.43;1.97;;;16.90;99.90;;;;;;5037625;28;20615;-72
2022/07/08 10:41:57;;;;;;;2.60;2.10;;;17.00;99.90;;;;;;5037298;28;20585;-75
2022/07/08 10:45:04;;;;;;;2.60;2.20;;;16.90;99.90;;;;;;5041050;28;20832;-73
2022/07/08 10:48:12;;;;;;;2.90;2.70;;;17.00;99.90;;;;;;5041993;28;20454;-73
2022/07/08 10:51:04;;;;;;;3.50;2.50;;;17.10;99.90;;;;;;5044984;28;20489;-73
2022/07/08 10:54:29;;;;;;;2.83;2.60;;;17.20;99.90;;;;;;5040944;28;20981;-74
2022/07/08 10:57:33;;;;;;;2.67;2.50;;;17.40;99.90;;;;;;5036309;28;20510;-73
2022/07/08 11:00:25;;;;;;;4.67;2.73;;;17.40;99.90;;;;;;5041694;28;20601;-73
2022/07/08 11:03:48;;;;;;;3.97;2.97;;;17.50;99.90;;;;;;5040381;28;20470;-74
2022/07/08 11:06:38;;;;;;;4.03;2.20;;;17.60;99.90;;;;;;5039306;28;20988;-73
2022/07/08 11:09:28;;;;;;;4.00;2.50;;;17.60;99.90;;;;;;5044557;28;20590;-74
2022/07/08 11:12:19;;;;;;;3.37;2.13;;;17.70;99.90;;;;;;5042034;28;20465;-73
2022/07/08 11:15:17;;;;;;;2.40;2.20;;;17.70;99.90;;;;;;5044080;28;20911;-73
2022/07/08 11:18:07;;;;;;;4.30;2.47;;;17.80;99.90;;;;;;5040295;28;20472;-72
2022/07/08 11:21:02;;;;;;;2.50;2.30;;;17.80;99.90;;;;;;5045076;28;21022;-71
2022/07/08 11:23:56;;;;;;;3.50;2.27;;;17.90;99.90;;;;;;5041529;28;20477;-75
2022/07/08 11:26:53;;;;;;;2.80;2.50;;;18.00;99.90;;;;;;5043438;28;20989;-72
2022/07/08 11:29:49;;;;;;;2.93;1.80;;;18.20;99.90;;;;;;5040596;28;20482;-72
2022/07/08 11:32:38;;;;;;;3.03;2.13;;;18.30;99.90;;;;;;5039387;28;20959;-73
2022/07/08 11:35:29;;;;;;;2.90;2.60;;;18.30;99.90;;;;;;5034879;28;20520;-73
2022/07/08 11:38:40;;;;;;;3.10;2.50;;;18.40;99.90;;;;;;5039201;28;21144;-79
2022/07/08 11:41:39;;;;;;;5.13;2.10;;;18.50;99.90;;;;;;5044964;28;20505;-75
2022/07/08 11:44:36;;;;;;;5.37;2.10;;;18.50;99.90;;;;;;5037078;28;21006;-75
2022/07/08 11:47:28;;;;;;;3.30;2.00;;;18.60;99.90;;;;;;5040335;28;20447;-70
2022/07/08 11:50:16;;;;;;;1.70;1.60;;;18.80;99.90;;;;;;5043488;28;21075;-75
2022/07/08 11:53:22;;;;;;;1.60;1.50;;;18.90;99.90;;;;;;5045739;28;20463;-76
2022/07/08 11:56:13;;;;;;;1.80;1.50;;;19.20;99.90;;;;;;5037451;28;20612;-75
2022/07/08 11:59:05;;;;;;;3.63;2.00;;;19.30;99.90;;;;;;5045525;28;20467;-73
2022/07/08 12:02:01;;;;;;;2.57;1.87;;;19.30;99.90;;;;;;5044929;28;20469;-73
2022/07/08 12:04:52;;;;;;;2.43;1.93;;;19.40;99.90;;;;;;5039641;28;20455;-75
2022/07/08 12:07:44;;;;;;;3.87;2.00;;;19.50;99.90;;;;;;5037797;28;20459;-75
2022/07/08 12:10:38;;;;;;;2.00;1.80;;;19.60;99.90;;;;;;5044007;28;20470;-75
2022/07/08 12:13:44;;;;;;;2.80;2.00;;;19.70;99.90;;;;;;5044415;28;20439;-76
2022/07/08 12:16:42;;;;;;;3.53;2.10;;;19.90;99.90;;;;;;5037566;28;20501;-74
2022/07/08 12:19:36;;;;;;;3.03;2.00;;;20.00;99.90;;;;;;5037739;28;20536;-73
2022/07/08 12:22:46;;;;;;;2.90;2.27;;;20.10;99.90;;;;;;5044788;28;20998;-74
2022/07/08 12:25:55;;;;;;;2.30;2.07;;;20.20;99.90;;;;;;5045673;28;20536;-74
2022/07/08 12:28:49;;;;;;;2.10;2.00;;;20.20;99.90;;;;;;5041834;28;20557;-73
2022/07/08 12:31:44;;;;;;;2.60;2.20;;;20.20;99.90;;;;;;5044446;28;20702;-74
2022/07/08 12:34:36;;;;;;;3.00;2.73;;;20.20;99.90;;;;;;5042733;28;20462;-74
2022/07/08 12:37:27;;;;;;;4.00;2.40;;;20.10;99.90;;;;;;5040807;28;20849;-73
2022/07/08 12:40:22;;;;;;;4.47;2.13;;;20.10;99.90;;;;;;5040020;28;20962;-73
2022/07/08 12:43:16;;;;;;;4.57;2.50;;;20.10;99.90;;;;;;5041723;28;20557;-73
2022/07/08 12:46:06;;;;;;;2.53;2.33;;;20.20;99.90;;;;;;5045066;28;20510;-73
2022/07/08 12:48:56;;;;;;;2.80;2.60;;;20.40;99.90;;;;;;5046160;28;20513;-74
2022/07/08 12:51:45;;;;;;;2.80;2.00;;;20.50;99.90;;;;;;5043645;28;20454;-74
2022/07/08 12:54:34;;;;;;;3.13;2.33;;;20.40;99.90;;;;;;5045588;28;20451;-73
2022/07/08 12:57:30;;;;;;;3.97;2.40;;;20.40;99.90;;;;;;5045151;28;20454;-74
2022/07/08 13:00:20;;;;;;;3.67;2.27;;;20.50;99.90;;;;;;5036190;28;20482;-74
2022/07/08 13:03:15;;;;;;;3.77;2.30;;;20.60;99.90;;;;;;5042672;28;22061;-74
2022/07/08 13:06:07;;;;;;;2.90;2.70;;;20.60;99.90;;;;;;5044831;28;20571;-71
2022/07/08 13:08:55;;;;;;;2.33;1.90;;;20.70;99.90;;;;;;5040297;28;20553;-72
2022/07/08 13:11:51;;;;;;;7.00;2.37;;;20.60;99.90;;;;;;5040239;28;20512;-73
2022/07/08 13:14:43;;;;;;;4.63;2.20;;;20.60;99.90;;;;;;5043075;28;20463;-73
2022/07/08 13:17:35;;;;;;;4.17;2.20;;;20.60;99.90;;;;;;5044053;28;20482;-73
2022/07/08 13:20:29;;;;;;;2.33;2.13;;;20.60;99.90;;;;;;5042754;28;20684;-73
2022/07/08 13:23:18;;;;;;;3.03;2.30;;;20.70;99.90;;;;;;5041921;28;20553;-74
2022/07/08 13:26:14;;;;;;;3.53;2.20;;;20.70;99.90;;;;;;5042731;28;20917;-74
2022/07/08 13:29:06;;;;;;;3.13;1.90;;;20.80;99.90;;;;;;5043551;28;20865;-76
2022/07/08 13:32:02;;;;;;;3.70;2.40;;;21.00;99.90;;;;;;5040290;28;20978;-76
2022/07/08 13:34:52;;;;;;;2.53;2.30;;;21.20;99.90;;;;;;5037114;28;20554;-77
2022/07/08 13:37:57;;;;;;;2.47;2.27;;;21.10;99.90;;;;;;5039273;28;20446;-76
2022/07/08 13:40:45;;;;;;;2.80;2.03;;;21.10;99.90;;;;;;5040100;28;20550;-76
2022/07/08 13:43:33;;;;;;;3.37;2.30;;;21.10;99.90;;;;;;5038546;28;20557;-75
2022/07/08 13:46:22;;;;;;;2.10;1.90;;;21.20;99.90;;;;;;5045533;28;20497;-75
2022/07/08 13:49:11;;;;;;;2.23;1.73;;;21.10;99.90;;;;;;5042023;28;20560;-73
2022/07/08 13:52:06;;;;;;;5.10;1.90;;;21.20;99.90;;;;;;5038882;28;20476;-73
2022/07/08 13:54:55;;;;;;;7.30;1.90;;;21.30;99.90;;;;;;5044562;28;20560;-75
2022/07/08 13:57:46;;;;;;;3.10;1.60;;;21.20;99.90;;;;;;5039051;28;20458;-73
2022/07/08 14:00:35;;;;;;;1.97;1.60;;;21.20;99.90;;;;;;5029874;28;20625;-74
2022/07/08 14:03:32;;;;;;;2.80;1.60;;;21.10;99.90;;;;;;5043075;28;20533;-74
2022/07/08 14:06:21;;;;;;;2.10;1.90;;;21.10;99.90;;;;;;5044671;28;20486;-73
2022/07/08 14:09:16;;;;;;;3.90;1.70;;;21.10;99.90;;;;;;5038712;28;20557;-75
2022/07/08 14:12:10;;;;;;;4.40;1.90;;;21.20;99.90;;;;;;5040837;28;20454;-73
2022/07/08 14:15:01;;;;;;;4.60;2.17;;;21.40;99.90;;;;;;5040737;28;20552;-74
2022/07/08 14:17:52;;;;;;;2.43;1.60;;;21.50;99.90;;;;;;5041553;28;20480;-74
2022/07/08 14:20:40;;;;;;;3.90;1.77;;;21.70;99.90;;;;;;5031504;28;20503;-73
2022/07/08 14:23:33;;;;;;;4.60;2.27;;;21.80;99.90;;;;;;5035600;28;20466;-74
2022/07/08 14:26:21;;;;;;;4.93;2.00;;;21.70;99.90;;;;;;5035561;28;20482;-73
2022/07/08 14:29:11;;;;;;;2.07;1.60;;;21.60;99.90;;;;;;5031765;28;20474;-73
2022/07/08 14:32:00;;;;;;;2.03;1.77;;;21.50;99.90;;;;;;5037804;28;20453;-74
2022/07/08 14:34:49;;;;;;;4.57;1.93;;;21.40;99.90;;;;;;5034975;28;20922;-74
2022/07/08 14:37:44;;;;;;;4.10;2.30;;;21.30;99.90;;;;;;5040054;28;20465;-77
2022/07/08 14:40:37;;;;;;;3.60;2.60;;;21.40;99.90;;;;;;5039906;28;20517;-75
2022/07/08 14:43:32;;;;;;;4.80;2.23;;;21.30;99.90;;;;;;5038403;28;20469;-75
2022/07/08 14:46:32;;;;;;;4.97;2.20;;;21.30;99.90;;;;;;5041526;28;20483;-75
2022/07/08 14:49:22;;;;;;;3.00;2.27;;;21.30;99.90;;;;;;5040311;28;21623;-75
2022/07/08 14:52:12;;;;;;;5.10;2.17;;;21.20;99.90;;;;;;5043823;28;20541;-76
2022/07/08 14:55:00;;;;;;;2.63;2.13;;;21.30;99.90;;;;;;5048461;28;20474;-75
2022/07/08 14:57:54;;;;;;;2.90;1.80;;;21.40;99.90;;;;;;5046207;28;20463;-76
2022/07/08 15:00:49;;;;;;;4.43;1.77;;;21.40;99.90;;;;;;5043625;28;20481;-76
2022/07/08 15:03:50;;;;;;;;;;;;;;;;;;;;;
2022/07/08 15:06:43;;;;;;;5.30;1.73;;;21.70;99.90;;;;;;5046656;28;21005;-75
2022/07/08 15:09:33;;;;;;;2.60;1.57;;;21.80;99.90;;;;;;5043899;28;20510;-75
2022/07/08 15:12:38;;;;;;;4.40;2.10;;;22.10;99.90;;;;;;5044939;28;20489;-75
2022/07/08 15:15:33;;;;;;;2.13;1.83;;;22.30;99.90;;;;;;5035136;28;20486;-76
2022/07/08 15:18:33;;;;;;;4.03;2.10;;;22.40;99.90;;;;;;5039721;28;20481;-76
2022/07/08 15:21:40;;;;;;;3.30;1.70;;;22.40;99.90;;;;;;5042870;28;21361;-77
2022/07/08 15:24:35;;;;;;;4.30;2.10;;;22.50;99.90;;;;;;5043813;28;20474;-73
2022/07/08 15:27:34;;;;;;;6.27;2.60;;;22.60;99.90;;;;;;5039092;28;20538;-72
2022/07/08 15:30:26;;;;;;;6.27;2.10;;;22.50;99.90;;;;;;5036599;28;20967;-74
2022/07/08 15:33:14;;;;;;;4.83;1.93;;;22.50;99.90;;;;;;5032053;28;20454;-76
2022/07/08 15:36:10;;;;;;;4.30;1.90;;;22.70;99.90;;;;;;5041943;28;20470;-73
2022/07/08 15:39:03;;;;;;;4.27;2.20;;;22.70;99.90;;;;;;5042345;28;20478;-74
2022/07/08 15:41:55;;;;;;;5.67;2.03;;;22.80;99.90;;;;;;5041850;28;20450;-73
2022/07/08 15:44:43;;;;;;;4.90;2.20;;;22.90;99.90;;;;;;5037087;28;20852;-75
2022/07/08 15:47:33;;;;;;;3.03;2.53;;;23.00;99.90;;;;;;5046270;28;20462;-75
2022/07/08 15:50:23;;;;;;;3.33;1.73;;;23.10;99.90;;;;;;5045450;28;20589;-74
2022/07/08 15:53:12;;;;;;;3.17;2.13;;;23.20;99.90;;;;;;5046657;28;20509;-75
2022/07/08 15:56:02;;;;;;;4.70;2.00;;;23.20;99.90;;;;;;5041779;28;20612;-74
2022/07/08 15:58:50;;;;;;;4.10;2.03;;;23.20;99.90;;;;;;5041687;28;20533;-74
2022/07/08 16:01:39;;;;;;;3.80;2.13;;;23.20;99.90;;;;;;5040762;28;20834;-72
2022/07/08 16:04:28;;;;;;;3.83;2.10;;;22.90;99.90;;;;;;5042524;28;20947;-73
2022/07/08 16:07:17;;;;;;;4.80;1.90;;;22.70;99.90;;;;;;5041041;28;20466;-72
2022/07/08 16:10:06;;;;;;;5.93;2.00;;;22.80;99.90;;;;;;5037287;28;20506;-72
2022/07/08 16:12:56;;;;;;;4.33;2.20;;;22.80;99.90;;;;;;5040085;28;20592;-73
2022/07/08 16:15:44;;;;;;;3.50;2.07;;;22.60;99.90;;;;;;5035361;28;20470;-74
2022/07/08 16:18:32;;;;;;;4.47;1.77;;;22.40;99.90;;;;;;5042686;28;20533;-72
2022/07/08 16:21:21;;;;;;;2.73;1.83;;;22.40;99.90;;;;;;5036911;28;20479;-72